createdAt,value
2023-08-03T00:02:22.313Z,74160.94
2023-08-03T00:04:55.020Z,74140.78
2023-08-03T00:07:27.549Z,74158.94
2023-08-03T00:10:00.205Z,74142.78
2023-08-03T00:12:32.716Z,74183.13
2023-08-03T00:15:05.801Z,74162.97
2023-08-03T00:17:38.968Z,74152.88
2023-08-03T00:20:11.959Z,74144.81
2023-08-03T00:22:47.396Z,74152.88
2023-08-03T00:25:19.867Z,74154.91
2023-08-03T00:27:52.284Z,74167.00
2023-08-03T00:30:25.077Z,74142.78
2023-08-03T00:32:57.634Z,74156.91
2023-08-03T00:35:30.137Z,74148.84
2023-08-03T00:38:03.976Z,74171.03
2023-08-03T00:40:36.492Z,74183.13
2023-08-03T00:43:09.106Z,74162.97
2023-08-03T00:45:41.631Z,74181.13
2023-08-03T00:48:15.144Z,74171.03
2023-08-03T00:50:47.649Z,74164.97
2023-08-03T00:53:20.166Z,74181.13
2023-08-03T00:55:52.670Z,74209.38
2023-08-03T00:58:25.273Z,74225.50
2023-08-03T01:00:57.966Z,74191.22
2023-08-03T01:03:30.573Z,74211.38
2023-08-03T01:06:03.094Z,74221.47
2023-08-03T01:08:35.528Z,74205.34
2023-08-03T01:11:08.037Z,74229.53
2023-08-03T01:13:40.672Z,74225.50
2023-08-03T01:16:14.059Z,74207.34
2023-08-03T01:18:46.558Z,74203.31
2023-08-03T01:21:21.327Z,74239.63
2023-08-03T01:23:53.945Z,74225.50
2023-08-03T01:26:26.691Z,74207.34
2023-08-03T01:28:59.174Z,74221.47
2023-08-03T01:31:32.673Z,74217.44
2023-08-03T01:34:05.933Z,74229.53
2023-08-03T01:36:38.417Z,74225.50
2023-08-03T01:39:11.162Z,74241.66
2023-08-03T01:41:44.289Z,74225.50
2023-08-03T01:44:23.355Z,74207.34
2023-08-03T01:46:57.700Z,74211.38
2023-08-03T01:49:32.479Z,74205.34
2023-08-03T01:52:04.993Z,74215.41
2023-08-03T01:54:37.510Z,74195.25
2023-08-03T01:57:10.075Z,74187.19
2023-08-03T01:59:42.617Z,74225.50
2023-08-03T02:02:16.088Z,74221.47
2023-08-03T02:04:48.584Z,74223.50
2023-08-03T02:07:43.095Z,74219.44
2023-08-03T02:10:16.117Z,74255.78
2023-08-03T02:12:49.050Z,74235.59
2023-08-03T02:15:21.687Z,74251.75
2023-08-03T02:17:54.247Z,74253.75
2023-08-03T02:20:26.764Z,74249.72
2023-08-03T02:22:59.176Z,74225.50
2023-08-03T02:25:31.660Z,74243.66
2023-08-03T02:28:04.412Z,74213.41
2023-08-03T02:30:38.715Z,74235.59
2023-08-03T02:33:11.156Z,74243.66
2023-08-03T02:35:43.730Z,74263.84
2023-08-03T02:38:16.263Z,74231.56
2023-08-03T02:40:48.740Z,74233.56
2023-08-03T02:43:21.263Z,74235.59
2023-08-03T02:45:54.104Z,74245.69
2023-08-03T02:48:26.602Z,74251.75
2023-08-03T02:51:00.658Z,74229.53
2023-08-03T02:53:34.640Z,74233.56
2023-08-03T02:56:07.159Z,74227.53
2023-08-03T02:58:39.649Z,74271.91
2023-08-03T03:01:12.438Z,74261.81
2023-08-03T03:03:45.262Z,74251.75
2023-08-03T03:06:18.298Z,74235.59
2023-08-03T03:08:50.776Z,74253.75
2023-08-03T03:11:23.332Z,74273.94
2023-08-03T03:13:55.756Z,74267.88
2023-08-03T03:16:28.352Z,74257.78
2023-08-03T03:19:00.881Z,74263.84
2023-08-03T03:21:33.359Z,74304.19
2023-08-03T03:24:05.966Z,74292.09
2023-08-03T03:26:38.484Z,74310.25
2023-08-03T03:29:11.009Z,74310.25
2023-08-03T03:31:43.945Z,74284.03
2023-08-03T03:34:16.729Z,74300.16
2023-08-03T03:36:51.578Z,74300.16
2023-08-03T03:39:24.137Z,74336.47
2023-08-03T03:41:56.628Z,74326.38
2023-08-03T03:44:29.193Z,74336.47
2023-08-03T03:47:01.747Z,74324.38
2023-08-03T03:49:34.296Z,74308.22
2023-08-03T03:52:07.314Z,74338.50
2023-08-03T03:54:39.808Z,74328.41
2023-08-03T03:57:12.339Z,74346.56
2023-08-03T03:59:44.804Z,74336.47
2023-08-03T04:02:17.313Z,74336.47
2023-08-03T04:04:49.739Z,74346.56
2023-08-03T04:07:22.252Z,74332.44
2023-08-03T04:09:54.721Z,74350.59
2023-08-03T04:12:27.167Z,74364.72
2023-08-03T04:14:59.656Z,74360.69
2023-08-03T04:17:32.167Z,74366.75
2023-08-03T04:20:07.698Z,74352.63
2023-08-03T04:22:40.149Z,74360.69
2023-08-03T04:25:12.970Z,74399.03
2023-08-03T04:27:45.459Z,74350.59
2023-08-03T04:30:18.126Z,74378.84
2023-08-03T04:32:50.660Z,74366.75
2023-08-03T04:35:23.155Z,74399.03
2023-08-03T04:37:55.567Z,74413.16
2023-08-03T04:40:28.095Z,74415.16
2023-08-03T04:43:00.601Z,74411.13
2023-08-03T04:45:33.143Z,74439.38
2023-08-03T04:48:05.757Z,74421.22
2023-08-03T04:50:39.086Z,74443.41
2023-08-03T04:53:11.591Z,74415.16
2023-08-03T04:55:46.137Z,74409.13
2023-08-03T04:58:18.687Z,74435.34
2023-08-03T05:00:51.472Z,74419.19
2023-08-03T05:03:24.087Z,74407.09
2023-08-03T05:05:56.593Z,74431.31
2023-08-03T05:08:29.158Z,74461.56
2023-08-03T05:11:01.667Z,74439.38
2023-08-03T05:13:34.292Z,74441.41
2023-08-03T05:16:06.863Z,74431.31
2023-08-03T05:18:39.870Z,74439.38
2023-08-03T05:21:12.390Z,74437.34
2023-08-03T05:23:48.456Z,74429.28
2023-08-03T05:26:20.924Z,74437.34
2023-08-03T05:28:53.597Z,74411.13
2023-08-03T05:31:27.370Z,74445.44
2023-08-03T05:33:59.928Z,74433.31
2023-08-03T05:36:32.619Z,74429.28
2023-08-03T05:39:06.057Z,74413.16
2023-08-03T05:41:40.527Z,74453.50
2023-08-03T05:44:14.470Z,74392.97
2023-08-03T05:46:47.557Z,74433.31
2023-08-03T05:49:20.307Z,74413.16
2023-08-03T05:51:52.956Z,74455.50
2023-08-03T05:54:25.425Z,74431.31
2023-08-03T05:56:58.192Z,74435.34
2023-08-03T05:59:30.675Z,74439.38
2023-08-03T06:02:11.985Z,74423.22
2023-08-03T06:04:44.963Z,74475.69
2023-08-03T06:07:17.951Z,74441.41
2023-08-03T06:09:50.904Z,74467.63
2023-08-03T06:12:23.790Z,74439.38
2023-08-03T06:14:56.314Z,74453.50
2023-08-03T06:17:28.896Z,74431.31
2023-08-03T06:20:01.419Z,74465.59
2023-08-03T06:22:33.977Z,74477.72
2023-08-03T06:25:11.244Z,74447.44
2023-08-03T06:27:43.810Z,74469.63
2023-08-03T06:30:18.425Z,74487.81
2023-08-03T06:32:51.367Z,74447.44
2023-08-03T06:35:33.146Z,74433.31
2023-08-03T06:38:08.790Z,74457.53
2023-08-03T06:40:42.568Z,74461.56
2023-08-03T06:43:15.669Z,74463.59
2023-08-03T06:45:48.240Z,74475.69
2023-08-03T06:48:20.961Z,74487.81
2023-08-03T06:50:54.833Z,74499.91
2023-08-03T06:53:27.373Z,74516.06
2023-08-03T06:56:00.002Z,74477.72
2023-08-03T06:58:33.196Z,74505.97
2023-08-03T07:01:05.758Z,74493.84
2023-08-03T07:03:38.452Z,74477.72
2023-08-03T07:06:10.972Z,74501.94
2023-08-03T07:08:43.436Z,74518.06
2023-08-03T07:11:15.908Z,74505.97
2023-08-03T07:13:48.303Z,74503.94
2023-08-03T07:16:22.319Z,74469.63
2023-08-03T07:18:54.805Z,74487.81
2023-08-03T07:21:27.270Z,74457.53
2023-08-03T07:23:59.748Z,74459.56
2023-08-03T07:26:32.242Z,74467.63
2023-08-03T07:29:04.644Z,74481.75
2023-08-03T07:31:37.140Z,74493.84
2023-08-03T07:34:09.629Z,74497.88
2023-08-03T07:36:42.070Z,74481.75
2023-08-03T07:39:14.552Z,74384.91
2023-08-03T07:41:47.119Z,74429.28
2023-08-03T07:44:20.066Z,74407.09
2023-08-03T07:46:52.518Z,74415.16
2023-08-03T07:49:24.986Z,74405.06
2023-08-03T07:51:57.613Z,74425.25
2023-08-03T07:54:31.784Z,74413.16
2023-08-03T07:57:05.227Z,74453.50
2023-08-03T07:59:38.035Z,74457.53
2023-08-03T08:02:10.638Z,74475.69
2023-08-03T08:04:43.214Z,74493.84
2023-08-03T08:07:17.079Z,74499.91
2023-08-03T08:09:49.584Z,74501.94
2023-08-03T08:12:22.358Z,74501.94
2023-08-03T08:14:54.848Z,74552.38
2023-08-03T08:17:27.393Z,74562.47
2023-08-03T08:20:00.772Z,74592.72
2023-08-03T08:22:33.349Z,74606.84
2023-08-03T08:25:06.478Z,74592.72
2023-08-03T08:27:39.272Z,74588.69
2023-08-03T08:30:12.022Z,74576.59
2023-08-03T08:32:44.545Z,74568.50
2023-08-03T08:35:17.085Z,74546.31
2023-08-03T08:37:49.553Z,74556.41
2023-08-03T08:40:21.992Z,74582.63
2023-08-03T08:42:55.387Z,74542.28
2023-08-03T08:45:28.217Z,74546.31
2023-08-03T08:51:07.569Z,74580.63
2023-08-03T08:53:28.699Z,74584.66
2023-08-03T09:01:12.041Z,74572.53
2023-08-03T09:06:32.756Z,74663.34
2023-08-03T09:09:06.141Z,74643.16
2023-08-03T09:11:42.276Z,74649.22
2023-08-03T09:14:15.653Z,74647.19
2023-08-03T09:16:48.326Z,74645.19
2023-08-03T09:19:37.655Z,74649.22
2023-08-03T09:22:10.142Z,74604.84
2023-08-03T09:24:42.704Z,74620.97
2023-08-03T09:27:18.173Z,74610.88
2023-08-03T09:29:55.917Z,74635.09
2023-08-03T09:32:35.473Z,74598.78
2023-08-03T09:35:18.122Z,74663.34
2023-08-03T09:37:53.022Z,74657.28
2023-08-03T09:40:25.965Z,74653.25
2023-08-03T09:43:02.169Z,74633.06
2023-08-03T09:45:37.510Z,74643.16
2023-08-03T09:48:11.782Z,74608.88
2023-08-03T09:50:52.286Z,74590.72
2023-08-03T09:53:46.129Z,74602.81
2023-08-03T09:56:23.010Z,74562.47
2023-08-03T09:59:00.438Z,74562.47
2023-08-03T10:01:34.771Z,74568.50
2023-08-03T10:04:11.831Z,74606.84
2023-08-03T10:06:47.869Z,74602.81
2023-08-03T10:09:25.797Z,74582.63
2023-08-03T10:12:04.934Z,74540.25
2023-08-03T10:14:42.865Z,74532.19
2023-08-03T10:17:15.966Z,74479.72
2023-08-03T10:19:49.194Z,74451.47
2023-08-03T10:22:21.669Z,74411.13
2023-08-03T10:25:18.753Z,74413.16
2023-08-03T10:28:14.535Z,74380.88
2023-08-03T10:31:11.816Z,74421.22
2023-08-03T10:33:47.558Z,74362.69
2023-08-03T10:36:29.395Z,74350.59
2023-08-03T10:39:04.583Z,74336.47
2023-08-03T10:41:39.176Z,74354.63
2023-08-03T10:44:13.400Z,74332.44
2023-08-03T10:46:50.861Z,74338.50
2023-08-03T10:49:29.108Z,74279.97
2023-08-03T10:52:25.920Z,74316.31
2023-08-03T10:55:00.419Z,74328.41
2023-08-03T10:57:33.612Z,74340.50
2023-08-03T11:00:08.609Z,74350.59
2023-08-03T11:02:43.895Z,74364.72
2023-08-03T11:05:16.717Z,74390.94
2023-08-03T11:07:49.574Z,74397.00
2023-08-03T11:10:23.494Z,74413.16
2023-08-03T11:12:57.340Z,74429.28
2023-08-03T11:15:29.895Z,74449.47
2023-08-03T11:18:02.396Z,74459.56
2023-08-03T11:20:42.588Z,74497.88
2023-08-03T11:23:15.185Z,74485.78
2023-08-03T11:25:47.727Z,74558.41
2023-08-03T11:28:20.220Z,74616.94
2023-08-03T11:30:52.709Z,74649.22
2023-08-03T11:33:25.181Z,74695.63
2023-08-03T11:35:57.949Z,74683.53
2023-08-03T11:38:30.378Z,74669.41
2023-08-03T11:41:03.044Z,74663.34
2023-08-03T11:43:35.525Z,74610.88
2023-08-03T11:46:08.411Z,74568.50
2023-08-03T11:48:45.460Z,74643.16
2023-08-03T11:51:20.352Z,74715.81
2023-08-03T11:53:54.512Z,74697.66
2023-08-03T11:56:38.253Z,74729.94
2023-08-03T11:59:15.964Z,74725.91
2023-08-03T12:01:50.807Z,74713.78
2023-08-03T12:07:19.918Z,74861.09
2023-08-03T12:09:52.988Z,74871.19
2023-08-03T12:12:26.564Z,74871.19
2023-08-03T12:15:00.753Z,74883.28
2023-08-03T12:17:33.397Z,74911.53
2023-08-03T12:20:06.910Z,74903.47
2023-08-03T12:22:39.300Z,74933.75
2023-08-03T12:25:11.753Z,74962.00
2023-08-03T12:27:44.225Z,74982.16
2023-08-03T12:30:16.872Z,74994.28
2023-08-03T12:32:49.456Z,74972.06
2023-08-03T12:35:22.065Z,75012.44
2023-08-03T12:40:29.941Z,74998.31
2023-08-03T12:43:02.424Z,75028.59
2023-08-03T12:45:35.016Z,75012.44
2023-08-03T12:48:16.804Z,74970.06
2023-08-03T12:50:50.155Z,74980.16
2023-08-03T12:53:22.647Z,74941.81
2023-08-03T12:55:55.782Z,74955.94
2023-08-03T12:58:28.542Z,74945.84
2023-08-03T13:01:01.346Z,74949.88
2023-08-03T13:03:34.154Z,74953.91
2023-08-03T13:06:06.824Z,74917.59
2023-08-03T13:08:39.399Z,74911.53
2023-08-03T13:11:12.391Z,74978.13
2023-08-03T13:13:45.030Z,74970.06
2023-08-03T13:16:17.684Z,74939.78
2023-08-03T13:18:50.501Z,74923.66
2023-08-03T13:21:23.333Z,74947.88
2023-08-03T13:23:55.843Z,74970.06
2023-08-03T13:26:30.190Z,74931.72
2023-08-03T13:29:03.182Z,74887.31
2023-08-03T13:31:35.708Z,74891.38
2023-08-03T13:34:08.231Z,74889.34
2023-08-03T13:36:40.750Z,74891.38
2023-08-03T13:39:13.205Z,74849.00
2023-08-03T13:41:45.756Z,74838.91
2023-08-03T13:44:18.314Z,74865.13
2023-08-03T13:46:50.948Z,74853.03
2023-08-03T13:49:23.414Z,74873.19
2023-08-03T13:51:55.987Z,74905.50
2023-08-03T13:54:28.843Z,74802.56
2023-08-03T13:57:01.367Z,74786.44
2023-08-03T13:59:33.977Z,74792.47
2023-08-03T14:02:07.340Z,74802.56
2023-08-03T14:04:41.111Z,74804.59
2023-08-03T14:17:55.805Z,74871.19
2023-08-03T14:23:04.158Z,74865.13
2023-08-03T14:30:47.602Z,74851.00
2023-08-03T14:33:21.431Z,74756.16
2023-08-03T14:35:53.985Z,74762.22
2023-08-03T14:38:26.821Z,74792.47
2023-08-03T14:40:59.257Z,74758.19
2023-08-03T14:43:31.726Z,74810.66
2023-08-03T14:46:04.828Z,74842.94
2023-08-03T14:48:37.761Z,74812.66
2023-08-03T14:53:45.813Z,74927.69
2023-08-03T14:58:53.635Z,74937.78
2023-08-03T15:01:28.857Z,74901.44
2023-08-03T15:04:04.640Z,74903.47
2023-08-03T15:06:41.273Z,74867.16
2023-08-03T15:09:13.929Z,74840.91
2023-08-03T15:11:46.629Z,74873.19
2023-08-03T15:14:24.191Z,74857.06
2023-08-03T15:17:16.023Z,74901.44
2023-08-03T15:19:49.818Z,74842.94
2023-08-03T15:22:23.148Z,74857.06
2023-08-03T15:24:56.558Z,74875.22
2023-08-03T15:27:30.283Z,74871.19
2023-08-03T15:30:32.353Z,74857.06
2023-08-03T15:35:39.487Z,74853.03
2023-08-03T15:38:14.489Z,74824.78
2023-08-03T15:41:02.111Z,74826.78
2023-08-03T15:43:40.250Z,74861.09
2023-08-03T15:46:16.868Z,74836.88
2023-08-03T15:51:32.980Z,74869.16
2023-08-03T15:54:14.624Z,74885.31
2023-08-03T15:59:21.092Z,74857.06
2023-08-03T16:01:53.735Z,74945.84
2023-08-03T16:04:26.296Z,74871.19
2023-08-03T16:06:58.819Z,74840.91
2023-08-03T16:09:31.235Z,74828.81
2023-08-03T16:12:03.978Z,74867.16
2023-08-03T16:14:36.401Z,74857.06
2023-08-03T16:17:11.469Z,74887.31
2023-08-03T16:19:44.126Z,74875.22
2023-08-03T16:22:16.602Z,74909.53
2023-08-03T16:24:52.411Z,74951.91
2023-08-03T16:27:24.877Z,74978.13
2023-08-03T16:30:02.659Z,74972.06
2023-08-03T16:32:36.641Z,74998.31
2023-08-03T16:35:09.647Z,75022.53
2023-08-03T16:37:42.403Z,75056.84
2023-08-03T16:40:14.933Z,75044.72
2023-08-03T16:42:51.245Z,75058.84
2023-08-03T16:45:24.215Z,75006.38
2023-08-03T16:47:57.855Z,75018.50
2023-08-03T16:50:31.897Z,75028.59
2023-08-03T16:53:04.457Z,74966.03
2023-08-03T16:55:36.909Z,74893.38
2023-08-03T16:58:09.815Z,74832.84
2023-08-03T17:00:42.412Z,74828.81
2023-08-03T17:03:14.923Z,74861.09
2023-08-03T17:05:47.409Z,75022.53
2023-08-03T17:08:20.538Z,75040.69
2023-08-03T17:10:55.341Z,75068.94
2023-08-03T17:13:27.906Z,75115.34
2023-08-03T17:16:05.165Z,75105.28
2023-08-03T17:18:38.777Z,75087.09
2023-08-03T17:21:11.368Z,75204.16
2023-08-03T17:23:43.942Z,75181.94
2023-08-03T17:26:16.550Z,75179.94
2023-08-03T17:28:49.006Z,75173.88
2023-08-03T17:31:21.421Z,75190.03
2023-08-03T17:33:53.960Z,75181.94
2023-08-03T17:36:26.651Z,75224.34
2023-08-03T17:38:59.451Z,75175.91
2023-08-03T17:41:32.136Z,75204.16
2023-08-03T17:44:04.786Z,75212.22
2023-08-03T17:46:39.461Z,75192.03
2023-08-03T17:49:12.050Z,75188.00
2023-08-03T17:51:44.642Z,75278.81
2023-08-03T17:54:17.124Z,75290.94
2023-08-03T17:56:52.044Z,75236.44
2023-08-03T17:59:24.885Z,75258.63
2023-08-03T18:01:58.480Z,75246.53
2023-08-03T18:04:33.349Z,75284.88
2023-08-03T18:07:06.001Z,75303.03
2023-08-03T18:09:38.600Z,75313.13
2023-08-03T18:12:11.108Z,75303.03
2023-08-03T18:14:43.653Z,75301.03
2023-08-03T18:17:17.455Z,75319.19
2023-08-03T18:19:50.084Z,75305.06
2023-08-03T18:22:22.554Z,75337.34
2023-08-03T18:24:55.163Z,75307.06
2023-08-03T18:27:27.607Z,75341.38
2023-08-03T18:30:00.175Z,75353.50
2023-08-03T18:32:32.705Z,75347.44
2023-08-03T18:35:05.690Z,75331.28
2023-08-03T18:37:38.237Z,75317.16
2023-08-03T18:40:11.299Z,75331.28
2023-08-03T18:42:43.856Z,75341.38
2023-08-03T18:45:16.387Z,75361.56
2023-08-03T18:47:48.895Z,75365.59
2023-08-03T18:50:21.451Z,75371.66
2023-08-03T18:52:53.964Z,75438.25
2023-08-03T18:55:26.468Z,75424.13
2023-08-03T18:57:58.940Z,75414.03
2023-08-03T19:00:31.435Z,75420.09
2023-08-03T19:03:04.233Z,75484.66
2023-08-03T19:05:38.827Z,75488.72
2023-08-03T19:08:11.430Z,75480.63
2023-08-03T19:10:43.928Z,75496.78
2023-08-03T19:13:17.818Z,75478.63
2023-08-03T19:15:50.786Z,75521.00
2023-08-03T19:18:23.934Z,75537.16
2023-08-03T19:20:58.629Z,75500.81
2023-08-03T19:23:31.235Z,75531.09
2023-08-03T19:26:03.763Z,75541.19
2023-08-03T19:28:36.643Z,75529.06
2023-08-03T19:31:09.134Z,75523.03
2023-08-03T19:33:41.914Z,75531.09
2023-08-03T19:36:15.272Z,75527.06
2023-08-03T19:38:49.779Z,75551.28
2023-08-03T19:41:22.359Z,75518.97
2023-08-03T19:43:55.047Z,75521.00
2023-08-03T19:46:27.686Z,75555.31
2023-08-03T19:49:00.341Z,75543.19
2023-08-03T19:56:43.650Z,75539.16
2023-08-03T20:09:46.839Z,75541.19
2023-08-03T20:12:19.311Z,75555.31
2023-08-03T20:15:10.762Z,75553.28
2023-08-03T20:17:43.713Z,75569.44
2023-08-03T20:20:16.393Z,75557.34
2023-08-03T20:22:48.895Z,75571.47
2023-08-03T20:25:21.619Z,75567.41
2023-08-03T20:27:54.063Z,75539.16
2023-08-03T20:30:26.546Z,75539.16
2023-08-03T20:33:04.816Z,75559.34
2023-08-03T20:35:37.978Z,75551.28
2023-08-03T20:38:10.503Z,75547.25
2023-08-03T20:45:53.962Z,75555.31
2023-08-03T20:51:05.285Z,75567.41
2023-08-03T20:53:37.848Z,75555.31
2023-08-03T20:56:10.905Z,75565.41
2023-08-03T20:58:46.000Z,75571.47
2023-08-03T21:01:18.564Z,75561.38
2023-08-03T21:03:51.294Z,75579.53
2023-08-03T21:06:23.839Z,75555.31
2023-08-03T21:08:56.342Z,75571.47
2023-08-03T21:11:28.809Z,75575.50
2023-08-03T21:14:01.368Z,75577.50
2023-08-03T21:16:34.313Z,75587.59
2023-08-03T21:19:10.260Z,75587.59
2023-08-03T21:21:43.696Z,75595.69
2023-08-03T21:24:16.272Z,75591.63
2023-08-03T21:26:48.766Z,75595.69
2023-08-03T21:29:21.195Z,75609.81
2023-08-03T21:31:53.699Z,75603.75
2023-08-03T21:34:26.151Z,75613.84
2023-08-03T21:36:58.633Z,75615.84
2023-08-03T21:39:31.162Z,75609.81
2023-08-03T21:42:05.406Z,75636.03
2023-08-03T21:44:41.029Z,75625.94
2023-08-03T21:47:14.016Z,75650.16
2023-08-03T21:49:48.117Z,75666.31
2023-08-03T21:52:20.567Z,75650.16
2023-08-03T21:54:53.092Z,75652.19
2023-08-03T21:57:25.572Z,75684.47
2023-08-03T21:59:58.050Z,75670.34
2023-08-03T22:02:30.644Z,75650.16
2023-08-03T22:05:06.546Z,75656.22
2023-08-03T22:07:40.084Z,75668.34
2023-08-03T22:10:14.182Z,75664.28
2023-08-03T22:12:51.372Z,75696.59
2023-08-03T22:15:24.012Z,75686.50
2023-08-03T22:17:56.448Z,75680.44
2023-08-03T22:20:29.120Z,75704.66
2023-08-03T22:23:01.549Z,75718.78
2023-08-03T22:25:36.044Z,75712.75
2023-08-03T22:28:08.520Z,75710.72
2023-08-03T22:30:41.374Z,75734.94
2023-08-03T22:33:13.859Z,75736.97
2023-08-03T22:35:46.432Z,75741.00
2023-08-03T22:38:18.935Z,75724.84
2023-08-03T22:40:59.066Z,75767.22
2023-08-03T22:43:31.734Z,75745.03
2023-08-03T22:46:04.623Z,75743.00
2023-08-03T22:48:38.319Z,75775.31
2023-08-03T22:51:17.770Z,75763.19
2023-08-03T22:53:50.258Z,75771.28
2023-08-03T22:56:22.714Z,75775.31
2023-08-03T22:58:55.506Z,75769.25
2023-08-03T23:01:28.270Z,75793.47
2023-08-03T23:04:01.019Z,75809.63
2023-08-03T23:06:33.766Z,75819.72
2023-08-03T23:09:06.220Z,75845.94
2023-08-03T23:11:38.727Z,75843.94
2023-08-03T23:14:11.645Z,75845.94
2023-08-03T23:16:46.247Z,75858.06
2023-08-03T23:19:19.386Z,75860.06
2023-08-03T23:21:51.792Z,75876.22
2023-08-03T23:24:24.325Z,75886.31
2023-08-03T23:26:56.858Z,75870.16
2023-08-03T23:29:29.529Z,75886.31
2023-08-03T23:32:02.025Z,75912.56
2023-08-03T23:34:34.493Z,75902.47
2023-08-03T23:37:07.398Z,75908.53
2023-08-03T23:39:39.946Z,75920.63
2023-08-03T23:42:12.458Z,75910.53
2023-08-03T23:44:44.938Z,75930.72
2023-08-03T23:47:17.609Z,75928.69
2023-08-03T23:49:50.127Z,75944.84
2023-08-03T23:52:22.667Z,75950.91
2023-08-03T23:54:55.474Z,75936.78
2023-08-03T23:57:27.962Z,75963.00
